createdAt,value
2022-11-10T00:02:26.236Z,13.30
2022-11-10T00:05:15.763Z,13.20
2022-11-10T00:08:04.676Z,13.20
2022-11-10T00:11:01.374Z,13.20
2022-11-10T00:14:07.629Z,13.20
2022-11-10T00:17:04.678Z,13.30
2022-11-10T00:19:51.622Z,13.30
2022-11-10T00:22:41.463Z,13.30
2022-11-10T00:25:28.897Z,13.30
2022-11-10T00:28:15.660Z,13.30
2022-11-10T00:31:06.988Z,13.20
2022-11-10T00:33:53.253Z,13.20
2022-11-10T00:36:39.901Z,13.10
2022-11-10T00:39:27.951Z,13.20
2022-11-10T00:42:14.402Z,13.10
2022-11-10T00:45:00.945Z,13.20
2022-11-10T00:47:47.605Z,13.10
2022-11-10T00:50:34.469Z,13.10
2022-11-10T00:53:21.182Z,13.00
2022-11-10T00:56:09.441Z,13.00
2022-11-10T00:58:55.829Z,13.00
2022-11-10T01:01:42.406Z,13.00
2022-11-10T01:04:29.028Z,13.00
2022-11-10T01:07:16.135Z,13.00
2022-11-10T01:10:02.583Z,13.00
2022-11-10T01:12:50.413Z,13.00
2022-11-10T01:15:40.200Z,13.00
2022-11-10T01:18:26.885Z,13.00
2022-11-10T01:21:13.308Z,13.00
2022-11-10T01:24:00.147Z,13.00
2022-11-10T01:26:46.919Z,12.90
2022-11-10T01:29:34.662Z,12.90
2022-11-10T01:32:21.389Z,12.90
2022-11-10T01:35:08.711Z,12.90
2022-11-10T01:37:55.663Z,12.90
2022-11-10T01:40:42.229Z,12.90
2022-11-10T01:43:30.019Z,12.80
2022-11-10T01:46:17.920Z,12.80
2022-11-10T01:49:06.027Z,12.70
2022-11-10T01:51:55.878Z,12.80
2022-11-10T01:54:47.648Z,12.70
2022-11-10T01:57:35.505Z,12.70
2022-11-10T02:00:22.857Z,12.60
2022-11-10T02:03:16.412Z,12.50
2022-11-10T02:06:03.273Z,12.50
2022-11-10T02:08:51.225Z,12.50
2022-11-10T02:11:39.538Z,12.40
2022-11-10T02:14:26.564Z,12.40
2022-11-10T02:17:14.588Z,12.40
2022-11-10T02:20:05.605Z,12.40
2022-11-10T02:22:53.569Z,12.40
2022-11-10T02:25:40.246Z,12.30
2022-11-10T02:28:27.536Z,12.30
2022-11-10T02:31:14.404Z,12.20
2022-11-10T02:34:00.906Z,12.20
2022-11-10T02:36:47.251Z,12.10
2022-11-10T02:39:35.186Z,12.20
2022-11-10T02:42:21.708Z,12.10
2022-11-10T02:45:09.308Z,12.00
2022-11-10T02:47:56.135Z,12.00
2022-11-10T02:50:43.188Z,11.90
2022-11-10T02:53:29.616Z,11.90
2022-11-10T02:56:17.586Z,11.80
2022-11-10T02:59:04.814Z,11.80
2022-11-10T03:01:51.663Z,11.80
2022-11-10T03:04:38.111Z,11.80
2022-11-10T03:07:24.670Z,11.80
2022-11-10T03:10:11.445Z,11.80
2022-11-10T03:13:01.512Z,11.80
2022-11-10T03:15:48.806Z,11.80
2022-11-10T03:18:35.590Z,11.70
2022-11-10T03:21:22.017Z,11.60
2022-11-10T03:24:08.643Z,11.60
2022-11-10T03:26:55.107Z,11.60
2022-11-10T03:29:42.822Z,11.60
2022-11-10T03:32:29.548Z,11.50
2022-11-10T03:35:16.150Z,11.50
2022-11-10T03:38:02.593Z,11.50
2022-11-10T03:41:17.728Z,11.50
2022-11-10T03:43:58.695Z,11.50
2022-11-10T03:46:51.331Z,11.40
2022-11-10T03:49:38.592Z,11.30
2022-11-10T03:52:25.325Z,11.40
2022-11-10T03:55:13.306Z,11.40
2022-11-10T03:58:03.405Z,11.30
2022-11-10T04:00:49.855Z,11.30
2022-11-10T04:03:37.574Z,11.30
2022-11-10T04:06:41.833Z,11.20
2022-11-10T04:09:28.591Z,11.30
2022-11-10T04:12:33.235Z,11.20
2022-11-10T04:15:37.861Z,11.20
2022-11-10T04:18:25.563Z,11.20
2022-11-10T04:21:13.464Z,11.20
2022-11-10T04:24:00.183Z,11.10
2022-11-10T04:26:48.493Z,11.00
2022-11-10T04:29:35.397Z,11.00
2022-11-10T04:32:21.822Z,11.00
2022-11-10T04:35:09.144Z,11.00
2022-11-10T04:37:57.291Z,10.90
2022-11-10T04:40:43.893Z,10.90
2022-11-10T04:43:30.686Z,10.90
2022-11-10T04:46:23.906Z,10.90
2022-11-10T04:49:11.738Z,10.80
2022-11-10T04:51:58.561Z,10.80
2022-11-10T04:54:46.799Z,10.80
2022-11-10T04:57:33.401Z,10.80
2022-11-10T05:00:20.353Z,10.80
2022-11-10T05:03:08.695Z,10.90
2022-11-10T05:05:55.597Z,10.90
2022-11-10T05:08:43.455Z,10.90
2022-11-10T05:11:31.595Z,10.80
2022-11-10T05:14:18.006Z,10.70
2022-11-10T05:17:04.510Z,10.70
2022-11-10T05:19:50.935Z,10.70
2022-11-10T05:22:37.297Z,10.70
2022-11-10T05:25:23.826Z,10.70
2022-11-10T05:28:12.886Z,10.70
2022-11-10T05:30:59.314Z,10.60
2022-11-10T05:33:45.741Z,10.70
2022-11-10T05:36:32.168Z,10.60
2022-11-10T05:39:18.575Z,10.60
2022-11-10T05:42:05.477Z,10.70
2022-11-10T05:44:53.521Z,10.70
2022-11-10T05:47:40.702Z,10.70
2022-11-10T05:50:27.394Z,10.70
2022-11-10T05:53:14.172Z,10.70
2022-11-10T05:56:01.039Z,10.60
2022-11-10T05:58:47.768Z,10.60
2022-11-10T06:01:35.736Z,10.60
2022-11-10T06:04:22.316Z,10.60
2022-11-10T06:07:09.081Z,10.60
2022-11-10T06:09:55.445Z,10.60
2022-11-10T06:12:41.597Z,10.50
2022-11-10T06:15:28.576Z,10.50
2022-11-10T06:18:16.374Z,10.50
2022-11-10T06:21:02.751Z,10.40
2022-11-10T06:23:49.240Z,10.40
2022-11-10T06:26:35.649Z,10.40
2022-11-10T06:29:26.582Z,10.40
2022-11-10T06:32:13.489Z,10.40
2022-11-10T06:35:01.646Z,10.50
2022-11-10T06:37:57.344Z,10.50
2022-11-10T06:40:44.000Z,10.50
2022-11-10T06:43:30.564Z,10.40
2022-11-10T06:46:17.346Z,10.40
2022-11-10T06:49:03.688Z,10.50
2022-11-10T06:51:52.600Z,10.50
2022-11-10T06:54:39.201Z,10.50
2022-11-10T06:57:25.639Z,10.60
2022-11-10T07:00:13.477Z,10.60
2022-11-10T07:03:02.247Z,10.60
2022-11-10T07:05:48.916Z,10.70
2022-11-10T07:08:36.726Z,10.70
2022-11-10T07:11:23.319Z,10.70
2022-11-10T07:14:09.941Z,10.70
2022-11-10T07:16:56.686Z,10.80
2022-11-10T07:19:43.180Z,10.80
2022-11-10T07:22:29.615Z,10.90
2022-11-10T07:25:17.559Z,10.90
2022-11-10T07:28:05.766Z,10.90
2022-11-10T07:30:52.420Z,11.00
2022-11-10T07:33:38.997Z,11.00
2022-11-10T07:36:28.867Z,11.00
2022-11-10T07:39:15.810Z,11.10
2022-11-10T07:42:03.889Z,11.10
2022-11-10T07:44:50.481Z,11.10
2022-11-10T07:47:37.018Z,11.20
2022-11-10T07:50:23.467Z,11.20
2022-11-10T07:53:11.632Z,11.20
2022-11-10T07:55:59.589Z,11.20
2022-11-10T07:58:48.200Z,11.30
2022-11-10T08:01:35.263Z,11.40
2022-11-10T08:04:22.166Z,11.50
2022-11-10T08:07:08.797Z,11.50
2022-11-10T08:09:55.579Z,11.60
2022-11-10T08:12:42.114Z,11.70
2022-11-10T08:15:31.313Z,11.80
2022-11-10T08:18:20.002Z,11.80
2022-11-10T08:21:06.995Z,11.90
2022-11-10T08:23:53.625Z,12.00
2022-11-10T08:26:40.158Z,12.10
2022-11-10T08:29:26.584Z,12.10
2022-11-10T08:32:14.301Z,12.30
2022-11-10T08:35:00.794Z,12.50
2022-11-10T08:37:47.573Z,12.70
2022-11-10T08:40:34.081Z,12.80
2022-11-10T08:43:20.989Z,12.80
2022-11-10T08:46:08.024Z,12.80
2022-11-10T08:48:55.694Z,12.90
2022-11-10T08:51:42.396Z,13.00
2022-11-10T08:54:28.856Z,13.00
2022-11-10T08:57:15.262Z,13.00
2022-11-10T09:00:01.824Z,13.00
2022-11-10T09:02:48.328Z,12.90
2022-11-10T09:05:36.663Z,12.90
2022-11-10T09:08:23.329Z,12.90
2022-11-10T09:11:09.897Z,13.00
2022-11-10T09:13:56.233Z,13.00
2022-11-10T09:16:42.570Z,13.10
2022-11-10T09:19:29.147Z,13.10
2022-11-10T09:22:16.971Z,13.20
2022-11-10T09:25:03.699Z,13.30
2022-11-10T09:27:50.310Z,13.40
2022-11-10T09:30:36.709Z,13.50
2022-11-10T09:33:23.600Z,13.50
2022-11-10T09:36:10.822Z,13.60
2022-11-10T09:38:58.689Z,13.60
2022-11-10T09:41:45.710Z,13.70
2022-11-10T09:44:37.180Z,13.80
2022-11-10T09:47:55.821Z,13.80
2022-11-10T09:50:42.685Z,13.90
2022-11-10T09:53:35.552Z,13.90
2022-11-10T09:56:31.410Z,13.90
2022-11-10T09:59:25.433Z,14.00
2022-11-10T10:02:24.211Z,14.00
2022-11-10T10:05:36.450Z,14.00
2022-11-10T10:08:32.821Z,14.10
2022-11-10T10:11:33.628Z,14.20
2022-11-10T10:14:42.689Z,14.30
2022-11-10T10:17:40.800Z,14.30
2022-11-10T10:20:34.334Z,14.40
2022-11-10T10:23:47.172Z,14.40
2022-11-10T10:26:44.950Z,14.40
2022-11-10T10:29:37.578Z,14.40
2022-11-10T10:32:24.947Z,14.50
2022-11-10T10:35:15.293Z,14.50
2022-11-10T10:38:03.596Z,14.50
2022-11-10T10:40:52.832Z,14.60
2022-11-10T10:43:42.527Z,14.70
2022-11-10T10:46:35.712Z,14.70
2022-11-10T10:49:28.984Z,14.70
2022-11-10T10:52:20.251Z,14.70
2022-11-10T10:55:10.243Z,14.80
2022-11-10T10:58:00.644Z,14.80
2022-11-10T11:00:51.602Z,14.90
2022-11-10T11:03:44.305Z,14.90
2022-11-10T11:06:32.913Z,14.90
2022-11-10T11:09:24.011Z,15.00
2022-11-10T11:12:14.038Z,15.00
2022-11-10T11:15:14.807Z,15.00
2022-11-10T11:18:05.031Z,15.10
2022-11-10T11:21:00.826Z,15.10
2022-11-10T11:24:18.217Z,15.10
2022-11-10T11:27:11.870Z,15.10
2022-11-10T11:30:06.611Z,15.10
2022-11-10T11:33:14.770Z,15.10
2022-11-10T11:36:06.959Z,15.20
2022-11-10T11:38:59.573Z,15.20
2022-11-10T11:41:55.871Z,15.20
2022-11-10T11:45:06.169Z,15.30
2022-11-10T11:48:20.943Z,15.30
2022-11-10T11:51:16.788Z,15.30
2022-11-10T11:54:35.267Z,15.30
2022-11-10T11:57:37.228Z,15.30
2022-11-10T12:00:26.571Z,15.30
2022-11-10T12:03:48.649Z,15.40
2022-11-10T12:06:48.212Z,15.50
2022-11-10T12:09:43.351Z,15.50
2022-11-10T12:12:55.655Z,15.60
2022-11-10T12:15:50.091Z,15.70
2022-11-10T12:18:47.132Z,15.80
2022-11-10T12:21:45.121Z,15.90
2022-11-10T12:24:43.578Z,16.00
2022-11-10T12:27:34.832Z,16.00
2022-11-10T12:30:21.400Z,16.10
2022-11-10T12:33:17.737Z,16.10
2022-11-10T12:36:11.870Z,16.20
2022-11-10T12:39:02.500Z,16.30
2022-11-10T12:41:54.526Z,16.40
2022-11-10T12:44:49.682Z,16.60
2022-11-10T12:47:42.214Z,16.60
2022-11-10T12:50:41.639Z,16.80
2022-11-10T12:53:32.721Z,16.90
2022-11-10T12:56:23.548Z,17.00
2022-11-10T12:59:30.111Z,17.10
2022-11-10T13:02:29.580Z,17.10
2022-11-10T13:05:32.910Z,17.20
2022-11-10T13:08:27.728Z,17.20
2022-11-10T13:11:26.861Z,17.20
2022-11-10T13:14:26.114Z,17.30
2022-11-10T13:17:51.569Z,17.30
2022-11-10T13:20:56.078Z,17.10
2022-11-10T13:24:20.022Z,17.10
2022-11-10T13:27:12.716Z,17.00
2022-11-10T13:30:00.664Z,17.00
2022-11-10T13:32:47.313Z,16.90
2022-11-10T13:35:56.008Z,16.90
2022-11-10T13:38:42.975Z,17.00
2022-11-10T13:41:33.714Z,17.10
2022-11-10T13:44:27.119Z,17.20
2022-11-10T13:47:44.241Z,17.20
2022-11-10T13:50:51.890Z,17.10
2022-11-10T13:53:50.289Z,16.90
2022-11-10T13:57:00.848Z,16.80
2022-11-10T13:59:52.947Z,16.60
2022-11-10T14:03:02.130Z,16.50
2022-11-10T14:06:10.019Z,16.40
2022-11-10T14:09:00.918Z,16.30
2022-11-10T14:11:51.594Z,16.30
2022-11-10T14:14:52.412Z,16.30
2022-11-10T14:17:43.868Z,16.20
2022-11-10T14:20:35.307Z,16.10
2022-11-10T14:23:29.140Z,16.10
2022-11-10T14:26:21.832Z,16.00
2022-11-10T14:29:22.441Z,16.00
2022-11-10T14:32:18.556Z,15.90
2022-11-10T14:35:06.080Z,15.90
2022-11-10T14:37:53.078Z,15.90
2022-11-10T14:40:42.837Z,15.90
2022-11-10T14:43:32.660Z,15.90
2022-11-10T14:46:26.056Z,15.80
2022-11-10T14:49:14.072Z,15.80
2022-11-10T14:52:01.374Z,15.80
2022-11-10T14:54:48.449Z,15.70
2022-11-10T14:57:35.309Z,15.70
2022-11-10T15:00:26.510Z,15.80
2022-11-10T15:03:18.968Z,15.70
2022-11-10T15:06:11.068Z,15.80
2022-11-10T15:08:58.506Z,15.70
2022-11-10T15:11:50.742Z,15.60
2022-11-10T15:14:42.518Z,15.60
2022-11-10T15:17:46.776Z,15.50
2022-11-10T15:20:39.503Z,15.50
2022-11-10T15:23:33.754Z,15.50
2022-11-10T15:26:23.035Z,15.30
2022-11-10T15:29:20.281Z,15.20
2022-11-10T15:32:15.912Z,15.20
2022-11-10T15:35:10.342Z,15.10
2022-11-10T15:38:02.098Z,15.10
2022-11-10T15:40:51.745Z,15.10
2022-11-10T15:43:38.243Z,15.00
2022-11-10T15:46:27.267Z,15.00
2022-11-10T15:49:20.243Z,14.90
2022-11-10T15:52:12.466Z,14.90
2022-11-10T15:54:59.515Z,14.80
2022-11-10T15:57:47.398Z,14.80
2022-11-10T16:00:34.144Z,14.70
2022-11-10T16:03:22.166Z,14.80
2022-11-10T16:06:12.632Z,14.70
2022-11-10T16:08:59.370Z,14.60
2022-11-10T16:11:46.598Z,14.60
2022-11-10T16:14:34.384Z,14.60
2022-11-10T16:17:21.162Z,14.50
2022-11-10T16:20:14.758Z,14.40
2022-11-10T16:23:01.488Z,14.40
2022-11-10T16:25:49.775Z,14.40
2022-11-10T16:28:36.441Z,14.40
2022-11-10T16:31:24.328Z,14.30
2022-11-10T16:34:14.646Z,14.20
2022-11-10T16:37:02.760Z,14.10
2022-11-10T16:39:49.505Z,14.10
2022-11-10T16:42:36.027Z,14.00
2022-11-10T16:45:29.944Z,14.00
2022-11-10T16:48:22.077Z,13.90
2022-11-10T16:51:09.645Z,13.80
2022-11-10T16:53:56.177Z,13.80
2022-11-10T16:56:42.785Z,13.80
2022-11-10T16:59:29.253Z,13.80
2022-11-10T17:02:26.747Z,13.80
2022-11-10T17:05:16.157Z,13.70
2022-11-10T17:08:04.614Z,13.60
2022-11-10T17:10:52.043Z,13.60
2022-11-10T17:13:38.902Z,13.60
2022-11-10T17:16:29.709Z,13.50
2022-11-10T17:19:20.694Z,13.50
2022-11-10T17:22:11.223Z,13.40
2022-11-10T17:24:58.121Z,13.40
2022-11-10T17:27:44.852Z,13.40
2022-11-10T17:30:31.319Z,13.40
2022-11-10T17:33:17.741Z,13.50
2022-11-10T17:36:05.252Z,13.50
2022-11-10T17:38:53.503Z,13.40
2022-11-10T17:41:40.062Z,13.30
2022-11-10T17:44:26.957Z,13.30
2022-11-10T17:47:13.490Z,13.30
2022-11-10T17:49:59.935Z,13.30
2022-11-10T17:52:47.120Z,13.20
2022-11-10T17:55:36.850Z,13.20
2022-11-10T17:58:23.447Z,13.10
2022-11-10T18:01:15.535Z,13.10
2022-11-10T18:04:02.180Z,13.10
2022-11-10T18:06:48.705Z,13.10
2022-11-10T18:09:34.910Z,13.10
2022-11-10T18:12:27.592Z,13.10
2022-11-10T18:15:16.399Z,13.00
2022-11-10T18:18:02.958Z,13.00
2022-11-10T18:20:49.487Z,13.00
2022-11-10T18:23:35.891Z,12.90
2022-11-10T18:26:22.318Z,13.00
2022-11-10T18:29:10.448Z,13.00
2022-11-10T18:31:57.085Z,12.90
2022-11-10T18:34:43.660Z,12.90
2022-11-10T18:37:30.063Z,12.90
2022-11-10T18:40:16.561Z,12.90
2022-11-10T18:43:07.287Z,12.90
2022-11-10T18:45:55.596Z,12.90
2022-11-10T18:48:42.478Z,12.90
2022-11-10T18:51:29.215Z,12.80
2022-11-10T18:54:15.994Z,12.80
2022-11-10T18:57:02.506Z,12.80
2022-11-10T18:59:49.089Z,12.80
2022-11-10T19:02:36.933Z,12.70
2022-11-10T19:05:23.553Z,12.70
2022-11-10T19:08:10.747Z,12.80
2022-11-10T19:10:58.072Z,12.80
2022-11-10T19:13:45.807Z,12.70
2022-11-10T19:16:32.485Z,12.60
2022-11-10T19:19:20.121Z,12.60
2022-11-10T19:22:06.928Z,12.50
2022-11-10T19:25:07.639Z,12.50
2022-11-10T19:27:54.761Z,12.40
2022-11-10T19:30:41.309Z,12.40
2022-11-10T19:33:30.059Z,12.40
2022-11-10T19:36:19.817Z,12.30
2022-11-10T19:39:07.503Z,12.30
2022-11-10T19:41:54.376Z,12.20
2022-11-10T19:44:40.743Z,12.20
2022-11-10T19:47:27.512Z,12.10
2022-11-10T19:50:14.257Z,12.10
2022-11-10T19:53:01.973Z,12.10
2022-11-10T19:55:48.526Z,12.10
2022-11-10T19:58:37.768Z,12.10
2022-11-10T20:01:24.867Z,12.10
2022-11-10T20:04:12.540Z,12.10
2022-11-10T20:07:12.968Z,12.00
2022-11-10T20:10:01.150Z,12.00
2022-11-10T20:12:47.509Z,12.00
2022-11-10T20:15:33.945Z,11.90
2022-11-10T20:18:20.392Z,11.90
2022-11-10T20:21:08.119Z,11.90
2022-11-10T20:23:55.237Z,11.90
2022-11-10T20:26:43.519Z,11.80
2022-11-10T20:29:30.267Z,11.80
2022-11-10T20:32:16.688Z,11.80
2022-11-10T20:35:03.560Z,11.80
2022-11-10T20:37:50.577Z,11.80
2022-11-10T20:40:45.211Z,11.80
2022-11-10T20:43:36.228Z,11.80
2022-11-10T20:49:30.173Z,11.70
2022-11-10T20:52:16.763Z,11.80
2022-11-10T20:55:05.364Z,11.70
2022-11-10T20:57:52.104Z,11.70
2022-11-10T21:00:43.122Z,11.70
2022-11-10T21:03:29.641Z,11.70
2022-11-10T21:06:16.276Z,11.70
2022-11-10T21:09:02.657Z,11.60
2022-11-10T21:12:07.084Z,11.60
2022-11-10T21:14:53.822Z,11.60
2022-11-10T21:17:44.224Z,11.60
2022-11-10T21:20:33.134Z,11.50
2022-11-10T21:23:19.893Z,11.60
2022-11-10T21:26:08.425Z,11.60
2022-11-10T21:28:55.100Z,11.60
2022-11-10T21:31:41.820Z,11.50
2022-11-10T21:34:29.916Z,11.50
2022-11-10T21:37:16.646Z,11.50
2022-11-10T21:40:03.214Z,11.40
2022-11-10T21:42:54.278Z,11.40
2022-11-10T21:45:41.253Z,11.40
2022-11-10T21:48:28.248Z,11.40
2022-11-10T21:51:16.407Z,11.40
2022-11-10T21:54:02.853Z,11.40
2022-11-10T21:56:49.367Z,11.40
2022-11-10T21:59:35.890Z,11.40
2022-11-10T22:02:22.247Z,11.30
2022-11-10T22:05:09.401Z,11.30
2022-11-10T22:07:57.375Z,11.40
2022-11-10T22:11:01.165Z,11.30
2022-11-10T22:14:05.669Z,11.30
2022-11-10T22:17:10.044Z,11.30
2022-11-10T22:19:56.875Z,11.30
2022-11-10T22:22:44.108Z,11.30
2022-11-10T22:25:32.284Z,11.30
2022-11-10T22:28:20.931Z,11.20
2022-11-10T22:31:09.220Z,11.20
2022-11-10T22:33:55.539Z,11.20
2022-11-10T22:36:41.972Z,11.20
2022-11-10T22:39:48.665Z,11.10
2022-11-10T22:42:54.243Z,11.10
2022-11-10T22:45:40.988Z,11.10
2022-11-10T22:48:27.412Z,11.10
2022-11-10T22:51:13.860Z,11.10
2022-11-10T22:54:00.528Z,11.10
2022-11-10T22:56:48.208Z,11.10
2022-11-10T22:59:36.064Z,11.10
2022-11-10T23:02:22.771Z,11.10
2022-11-10T23:05:09.500Z,11.00
2022-11-10T23:07:56.701Z,11.00
2022-11-10T23:10:43.355Z,11.00
2022-11-10T23:13:29.884Z,11.00
2022-11-10T23:16:20.102Z,11.00
2022-11-10T23:19:06.674Z,11.00
2022-11-10T23:21:53.163Z,11.00
2022-11-10T23:24:39.637Z,11.00
2022-11-10T23:27:25.947Z,11.00
2022-11-10T23:30:13.173Z,10.90
2022-11-10T23:33:00.896Z,10.90
2022-11-10T23:35:47.529Z,10.90
2022-11-10T23:38:35.600Z,10.80
2022-11-10T23:41:23.621Z,10.80
2022-11-10T23:44:10.468Z,10.90
2022-11-10T23:46:56.960Z,10.90
2022-11-10T23:49:44.730Z,10.80
2022-11-10T23:52:31.367Z,10.80
2022-11-10T23:55:18.283Z,10.80
2022-11-10T23:58:05.359Z,10.80
